Pumpkin Center, California
Current Conditions -  °F | °C
As of 8:54 PM on Saturday 25 Oct 2014 (Local Time) from KBFL Reporting Station
Scattered Clouds Scattered Clouds  
Wind Chill: 66°   Ceiling: Unl
Heat Index: 66°   Visibility: 7mi
Dew Point: 52°   Wind: 13mph
Humidity: 60%   Direction: 340°NNW
Pressure: 30.06"   Gusts: NA
Location:  35.2669°N, 119.032°W
Report Text: KBFL 260354Z 34011KT 7SM FEW016 SCT055 19/11 A3006 RMK AO2 SLP175 T01890111
Loading
Personal Weather Stations






























Interactive Weather Map
Tropical Storm Tracking
New forecast layout! Learn more

10-Day Weather Forecast

Advertisements
Track Severe Weather on mobile